West Palm Beach, FL (33401)

2:40 AM EDT on August 23, 2017 (GMT -0400)
PRESIDENTIAL ESTATES - WEST PALM BEACH | | Change Station

Elev 60 ft 26.73 °N, 80.08 °W | Updated 2 minutes ago

Partly Cloudy
Partly Cloudy
82.3 °F
Feels Like 91 °F
N
0.0
Wind Variable Wind from ESE
Gusts 1.0 mph

Today
High -- | Low -- °F
--% Chance of Precip.
Yesterday
High -- | Low -- °F
Precip. -- in
Pressure 29.97 in
Visibility 10.0 miles
Clouds Scattered Clouds 2800 ft
Scattered Clouds 5000 ft
Heat Index 91 °F
Dew Point 78 °F
Humidity 86%
Rainfall 0.00 in
Snow Depth Not available.
6:55 AM 7:49 PM
Waxing Crescent, 3% visible
METAR KPBI 230553Z 14004KT 10SM SCT028 SCT050 28/24 A2997 RMK AO2 SLP148 T02830244 10306 20283 58012
Pressure 29.97 in
Visibility 10.0 miles
Clouds Scattered Clouds 2800 ft
Scattered Clouds 5000 ft
Heat Index 91 °F
Dew Point 78 °F
Humidity 86%
Rainfall 0.00 in
Snow Depth Not available.
6:55 AM 7:49 PM
Waxing Crescent, 3% visible
METAR KPBI 230553Z 14004KT 10SM SCT028 SCT050 28/24 A2997 RMK AO2 SLP148 T02830244 10306 20283 58012

Get Severe Weather Alerts

Thanks for signing up!

Be on the lookout for a verification email in your inbox.

You'll start receiving the daily forecast at 6 AM.

×

10-Day Weather Forecast

Almanac

Astronomy

Aug. 23, 2017 Rise Set
Actual Time
Civil Twilight
Nautical Twilight
Astronomical Twilight
Moon
Length of Visible Light
Length of Day
Tomorrow will be .
, % of the Moon is Illuminated

Today's Extremes

State Highs State Lows

Community

WunderPhotos

Category 6

Welcome to Category 6. This is the collective home for Weather Underground's featured writeups by Dr. Jeff Masters (right), Bob Henson (left), Chris Burt, and other regular contributors.

Nearby

Air Quality

  Air Quality AQ Index Pollutant
Not available.

Snow Depth

Station Depth Elevation

Earthquake Activity

City Distance Mag. Time & Date
Minimum magnitude displayed is 2.5.

Coastal Water Temperatures

Place Temperature

Stations

Nearby Weather Stations

Station Location Temp. Windchill Dew Point Humidity Wind Precip. Elev Updated Type
                   

Watches & Warnings

There are currently no watches in effect.